createdAt,value
2019-05-25T00:00:45.297Z,978.91
2019-05-25T00:01:44.260Z,978.93
2019-05-25T00:02:44.328Z,978.90
2019-05-25T00:03:44.289Z,978.92
2019-05-25T00:04:44.310Z,978.86
2019-05-25T00:05:44.197Z,978.95
2019-05-25T00:06:44.277Z,978.93
2019-05-25T00:07:44.178Z,978.87
2019-05-25T00:08:44.210Z,978.79
2019-05-25T00:09:44.172Z,978.82
2019-05-25T00:10:44.140Z,978.82
2019-05-25T00:11:44.131Z,978.82
2019-05-25T00:12:44.184Z,978.83
2019-05-25T00:13:44.145Z,978.78
2019-05-25T00:14:44.174Z,978.82
2019-05-25T00:15:44.175Z,978.85
2019-05-25T00:16:44.163Z,978.84
2019-05-25T00:17:44.074Z,978.79
2019-05-25T00:18:44.094Z,978.81
2019-05-25T00:19:44.067Z,978.78
2019-05-25T00:20:44.144Z,978.78
2019-05-25T00:21:44.030Z,978.74
2019-05-25T00:22:44.066Z,978.71
2019-05-25T00:23:43.998Z,978.73
2019-05-25T00:24:44.038Z,978.77
2019-05-25T00:25:43.979Z,978.74
2019-05-25T00:26:43.949Z,978.73
2019-05-25T00:27:43.949Z,978.75
2019-05-25T00:28:43.970Z,978.71
2019-05-25T00:29:43.951Z,978.70
2019-05-25T00:30:44.011Z,978.72
2019-05-25T00:31:43.923Z,978.74
2019-05-25T00:32:43.943Z,978.76
2019-05-25T00:33:43.896Z,978.68
2019-05-25T00:34:43.934Z,978.68
2019-05-25T00:35:43.875Z,978.69
2019-05-25T00:36:43.927Z,978.64
2019-05-25T00:37:43.858Z,978.64
2019-05-25T00:38:43.853Z,978.64
2019-05-25T00:39:43.839Z,978.67
2019-05-25T00:40:43.888Z,978.63
2019-05-25T00:41:43.803Z,978.67
2019-05-25T00:42:43.788Z,978.70
2019-05-25T00:43:43.899Z,978.69
2019-05-25T00:44:43.781Z,978.74
2019-05-25T00:45:44.850Z,978.73
2019-05-25T00:46:43.740Z,978.71
2019-05-25T00:47:43.734Z,978.74
2019-05-25T00:48:43.842Z,978.70
2019-05-25T00:49:43.735Z,978.75
2019-05-25T00:50:43.775Z,978.74
2019-05-25T00:51:43.694Z,978.75
2019-05-25T00:52:43.684Z,978.74
2019-05-25T00:53:43.677Z,978.84
2019-05-25T00:54:43.696Z,978.75
2019-05-25T00:55:43.656Z,978.76
2019-05-25T00:56:43.676Z,978.75
2019-05-25T00:57:43.616Z,978.74
2019-05-25T00:58:43.610Z,978.77
2019-05-25T00:59:43.729Z,978.75
2019-05-25T01:00:43.591Z,978.80
2019-05-25T01:01:43.622Z,978.80
2019-05-25T01:02:43.579Z,978.78
2019-05-25T01:03:43.551Z,978.70
2019-05-25T01:04:43.565Z,978.79
2019-05-25T01:05:43.602Z,978.81
2019-05-25T01:06:43.533Z,978.81
2019-05-25T01:07:43.633Z,978.76
2019-05-25T01:08:43.493Z,978.78
2019-05-25T01:09:43.624Z,978.79
2019-05-25T01:10:43.484Z,978.80
2019-05-25T01:11:43.505Z,978.80
2019-05-25T01:12:43.465Z,978.82
2019-05-25T01:13:43.536Z,978.75
2019-05-25T01:14:43.438Z,978.76
2019-05-25T01:15:43.517Z,978.75
2019-05-25T01:16:43.422Z,978.75
2019-05-25T01:17:43.514Z,978.75
2019-05-25T01:18:43.389Z,978.74
2019-05-25T01:19:43.381Z,978.76
2019-05-25T01:20:43.461Z,978.75
2019-05-25T01:21:43.354Z,978.78
2019-05-25T01:22:44.372Z,978.75
2019-05-25T01:23:43.343Z,978.77
2019-05-25T01:24:44.919Z,978.71
2019-05-25T01:25:43.414Z,978.70
2019-05-25T01:26:43.303Z,978.77
2019-05-25T01:27:43.397Z,978.76
2019-05-25T01:28:43.285Z,978.69
2019-05-25T01:29:43.277Z,978.79
2019-05-25T01:30:43.266Z,978.76
2019-05-25T01:31:44.288Z,978.78
2019-05-25T01:32:43.229Z,978.79
2019-05-25T01:33:43.297Z,978.79
2019-05-25T01:34:43.233Z,978.81
2019-05-25T01:35:43.285Z,978.85
2019-05-25T01:36:43.190Z,978.84
2019-05-25T01:37:43.343Z,978.87
2019-05-25T01:38:43.160Z,978.90
2019-05-25T01:39:43.210Z,978.88
2019-05-25T01:40:43.222Z,978.84
2019-05-25T01:41:43.141Z,978.85
2019-05-25T01:42:43.214Z,978.85
2019-05-25T01:43:43.112Z,978.86
2019-05-25T01:44:43.154Z,978.86
2019-05-25T01:45:43.185Z,978.85
2019-05-25T01:46:43.088Z,978.84
2019-05-25T01:47:43.155Z,978.88
2019-05-25T01:48:43.071Z,978.88
2019-05-25T01:49:44.117Z,978.85
2019-05-25T01:50:43.046Z,978.87
2019-05-25T01:51:43.129Z,978.83
2019-05-25T01:52:43.009Z,978.84
2019-05-25T01:53:43.063Z,978.82
2019-05-25T01:54:58.591Z,978.80
2019-05-25T01:55:43.990Z,978.81
2019-05-25T01:56:42.960Z,978.85
2019-05-25T01:57:43.030Z,978.87
2019-05-25T01:58:42.951Z,978.86
2019-05-25T01:59:42.971Z,978.86
2019-05-25T02:00:42.942Z,978.86
2019-05-25T02:01:42.913Z,978.87
2019-05-25T02:02:42.973Z,978.89
2019-05-25T02:03:42.895Z,978.89
2019-05-25T02:04:42.916Z,978.90
2019-05-25T02:05:42.887Z,978.89
2019-05-25T02:06:42.846Z,978.89
2019-05-25T02:07:42.836Z,978.87
2019-05-25T02:08:43.918Z,978.90
2019-05-25T02:09:42.810Z,978.89
2019-05-25T02:10:42.860Z,978.90
2019-05-25T02:11:42.888Z,978.98
2019-05-25T02:12:42.779Z,978.92
2019-05-25T02:13:42.819Z,978.96
2019-05-25T02:14:42.766Z,978.91
2019-05-25T02:15:42.803Z,978.90
2019-05-25T02:16:42.742Z,978.90
2019-05-25T02:17:42.803Z,978.86
2019-05-25T02:18:45.545Z,978.89
2019-05-25T02:19:42.733Z,978.86
2019-05-25T02:20:42.723Z,978.88
2019-05-25T02:21:42.773Z,978.89
2019-05-25T02:22:42.685Z,978.87
2019-05-25T02:23:42.716Z,978.90
2019-05-25T02:24:42.658Z,978.90
2019-05-25T02:25:42.902Z,978.90
2019-05-25T02:26:42.632Z,978.86
2019-05-25T02:27:42.619Z,978.89
2019-05-25T02:28:42.609Z,978.91
2019-05-25T02:29:42.625Z,978.90
2019-05-25T02:30:42.582Z,978.88
2019-05-25T02:31:42.690Z,978.91
2019-05-25T02:32:42.550Z,978.89
2019-05-25T02:33:42.591Z,978.89
2019-05-25T02:34:42.552Z,978.94
2019-05-25T02:35:42.621Z,978.90
2019-05-25T02:36:42.542Z,978.91
2019-05-25T02:37:42.564Z,978.91
2019-05-25T02:38:42.503Z,978.93
2019-05-25T02:39:42.605Z,978.93
2019-05-25T02:40:42.484Z,978.92
2019-05-25T02:41:42.575Z,978.91
2019-05-25T02:42:42.465Z,978.87
2019-05-25T02:43:42.436Z,978.89
2019-05-25T02:44:42.426Z,978.85
2019-05-25T02:45:42.498Z,978.87
2019-05-25T02:46:42.418Z,978.86
2019-05-25T02:47:42.438Z,978.84
2019-05-25T02:48:42.379Z,978.88
2019-05-25T02:49:42.479Z,978.83
2019-05-25T02:50:42.362Z,978.85
2019-05-25T02:51:42.451Z,978.87
2019-05-25T02:52:42.341Z,978.83
2019-05-25T02:53:42.353Z,978.97
2019-05-25T02:54:42.422Z,978.97
2019-05-25T02:55:42.313Z,979.00
2019-05-25T02:56:42.403Z,978.92
2019-05-25T02:57:42.293Z,978.95
2019-05-25T02:58:42.405Z,979.00
2019-05-25T02:59:42.355Z,979.01
2019-05-25T03:00:42.245Z,978.99
2019-05-25T03:01:42.336Z,978.96
2019-05-25T03:02:42.281Z,978.97
2019-05-25T03:03:42.327Z,979.01
2019-05-25T03:04:42.198Z,978.99
2019-05-25T03:05:42.251Z,979.02
2019-05-25T03:06:42.280Z,979.01
2019-05-25T03:07:42.170Z,978.96
2019-05-25T03:08:42.270Z,978.99
2019-05-25T03:09:42.150Z,979.00
2019-05-25T03:10:42.130Z,979.03
2019-05-25T03:11:42.279Z,979.08
2019-05-25T03:12:42.122Z,979.00
2019-05-25T03:13:42.213Z,979.03
2019-05-25T03:14:42.103Z,978.99
2019-05-25T03:15:42.098Z,979.01
2019-05-25T03:16:42.097Z,979.02
2019-05-25T03:17:42.092Z,979.02
2019-05-25T03:18:42.047Z,979.08
2019-05-25T03:19:42.116Z,979.07
2019-05-25T03:20:42.051Z,979.06
2019-05-25T03:21:42.097Z,979.08
2019-05-25T03:22:41.998Z,979.05
2019-05-25T03:23:42.090Z,979.08
2019-05-25T03:24:41.979Z,979.06
2019-05-25T03:25:49.563Z,979.06
2019-05-25T03:26:42.969Z,979.08
2019-05-25T03:27:42.061Z,979.08
2019-05-25T03:28:41.940Z,979.04
2019-05-25T03:29:42.002Z,979.02
2019-05-25T03:30:41.925Z,979.03
2019-05-25T03:31:41.933Z,979.00
2019-05-25T03:32:42.018Z,978.98
2019-05-25T03:33:41.902Z,979.01
2019-05-25T03:34:41.976Z,979.05
2019-05-25T03:35:41.863Z,979.04
2019-05-25T03:36:41.876Z,979.00
2019-05-25T03:37:41.837Z,979.03
2019-05-25T03:38:41.906Z,979.05
2019-05-25T03:39:41.807Z,978.98
2019-05-25T03:40:41.848Z,979.04
2019-05-25T03:41:41.820Z,979.08
2019-05-25T03:42:41.888Z,979.04
2019-05-25T03:43:41.769Z,979.10
2019-05-25T03:44:41.821Z,979.08
2019-05-25T03:45:41.750Z,979.09
2019-05-25T03:46:41.763Z,979.12
2019-05-25T03:47:41.742Z,979.10
2019-05-25T03:48:41.791Z,979.10
2019-05-25T03:49:41.769Z,979.10
2019-05-25T03:50:41.735Z,979.06
2019-05-25T03:51:41.688Z,979.09
2019-05-25T03:52:41.702Z,979.10
2019-05-25T03:53:41.735Z,979.11
2019-05-25T03:54:41.659Z,979.10
2019-05-25T03:55:42.685Z,979.11
2019-05-25T03:56:41.626Z,979.14
2019-05-25T03:57:41.747Z,979.10
2019-05-25T03:58:41.597Z,979.14
2019-05-25T03:59:41.637Z,979.09
2019-05-25T04:00:41.558Z,979.12
2019-05-25T04:01:42.599Z,979.14
2019-05-25T04:02:41.628Z,979.11
2019-05-25T04:03:41.619Z,979.10
2019-05-25T04:04:41.531Z,979.14
2019-05-25T04:05:41.552Z,979.09
2019-05-25T04:06:41.523Z,979.08
2019-05-25T04:07:41.528Z,979.09
2019-05-25T04:08:41.503Z,979.11
2019-05-25T04:09:41.524Z,979.07
2019-05-25T04:10:41.475Z,979.10
2019-05-25T04:11:41.565Z,979.10
2019-05-25T04:12:41.468Z,979.09
2019-05-25T04:13:41.498Z,979.18
2019-05-25T04:14:41.449Z,979.17
2019-05-25T04:15:41.427Z,979.18
2019-05-25T04:16:41.417Z,979.15
2019-05-25T04:17:41.413Z,979.17
2019-05-25T04:18:41.379Z,979.15
2019-05-25T04:19:41.399Z,979.18
2019-05-25T04:20:41.362Z,979.16
2019-05-25T04:21:41.440Z,979.18
2019-05-25T04:22:41.340Z,979.15
2019-05-25T04:23:41.381Z,979.19
2019-05-25T04:24:41.322Z,979.23
2019-05-25T04:25:41.413Z,979.19
2019-05-25T04:26:41.302Z,979.23
2019-05-25T04:27:41.404Z,979.22
2019-05-25T04:28:41.278Z,979.22
2019-05-25T04:29:41.294Z,979.18
2019-05-25T04:30:41.304Z,979.18
2019-05-25T04:31:41.316Z,979.18
2019-05-25T04:32:41.236Z,979.15
2019-05-25T04:33:41.216Z,979.17
2019-05-25T04:34:41.237Z,979.19
2019-05-25T04:35:41.189Z,979.21
2019-05-25T04:36:41.263Z,979.21
2019-05-25T04:37:41.194Z,979.21
2019-05-25T04:38:41.177Z,979.23
2019-05-25T04:39:41.140Z,979.18
2019-05-25T04:40:41.240Z,979.20
2019-05-25T04:41:41.131Z,979.20
2019-05-25T04:42:42.255Z,979.21
2019-05-25T04:43:41.113Z,979.26
2019-05-25T04:44:41.213Z,979.23
2019-05-25T04:45:41.083Z,979.28
2019-05-25T04:46:41.153Z,979.27
2019-05-25T04:47:41.075Z,979.27
2019-05-25T04:48:41.074Z,979.28
2019-05-25T04:49:41.055Z,979.26
2019-05-25T04:50:41.128Z,979.30
2019-05-25T04:51:41.017Z,979.31
2019-05-25T04:52:42.118Z,979.31
2019-05-25T04:53:41.008Z,979.33
2019-05-25T04:54:40.978Z,979.29
2019-05-25T04:55:40.971Z,979.34
2019-05-25T04:56:41.030Z,979.32
2019-05-25T04:57:40.961Z,979.34
2019-05-25T04:58:40.960Z,979.36
2019-05-25T04:59:40.931Z,979.40
2019-05-25T05:00:42.947Z,979.41
2019-05-25T05:01:40.912Z,979.39
2019-05-25T05:02:40.992Z,979.38
2019-05-25T05:03:40.886Z,979.41
2019-05-25T05:04:40.973Z,979.47
2019-05-25T05:05:40.864Z,979.48
2019-05-25T05:06:40.919Z,979.47
2019-05-25T05:07:40.864Z,979.53
2019-05-25T05:08:40.846Z,979.50
2019-05-25T05:09:40.816Z,979.48
2019-05-25T05:10:40.796Z,979.42
2019-05-25T05:11:40.769Z,979.44
2019-05-25T05:12:40.817Z,979.44
2019-05-25T05:13:40.778Z,979.44
2019-05-25T05:14:40.858Z,979.43
2019-05-25T05:15:40.829Z,979.42
2019-05-25T05:16:40.754Z,979.41
2019-05-25T05:17:40.763Z,979.43
2019-05-25T05:18:40.733Z,979.38
2019-05-25T05:19:41.821Z,979.38
2019-05-25T05:20:40.702Z,979.35
2019-05-25T05:21:40.732Z,979.37
2019-05-25T05:22:40.693Z,979.41
2019-05-25T05:23:40.729Z,979.44
2019-05-25T05:24:40.644Z,979.41
2019-05-25T05:25:40.704Z,979.39
2019-05-25T05:26:54.759Z,979.39
2019-05-25T05:27:41.606Z,979.41
2019-05-25T05:28:40.656Z,979.43
2019-05-25T05:29:40.597Z,979.41
2019-05-25T05:30:40.648Z,979.42
2019-05-25T05:31:40.618Z,979.40
2019-05-25T05:32:40.559Z,979.38
2019-05-25T05:33:40.590Z,979.39
2019-05-25T05:34:40.541Z,979.44
2019-05-25T05:35:41.610Z,979.42
2019-05-25T05:36:40.521Z,979.33
2019-05-25T05:37:40.531Z,979.38
2019-05-25T05:38:40.512Z,979.38
2019-05-25T05:39:41.595Z,979.35
2019-05-25T05:40:40.478Z,979.38
2019-05-25T05:41:41.524Z,979.36
2019-05-25T05:42:40.465Z,979.36
2019-05-25T05:43:40.445Z,979.37
2019-05-25T05:44:40.505Z,979.38
2019-05-25T05:45:40.407Z,979.39
2019-05-25T05:46:40.442Z,979.43
2019-05-25T05:47:41.444Z,979.42
2019-05-25T05:48:40.389Z,979.43
2019-05-25T05:49:40.448Z,979.40
2019-05-25T05:50:40.359Z,979.43
2019-05-25T05:51:40.379Z,979.43
2019-05-25T05:52:40.342Z,979.39
2019-05-25T05:53:40.360Z,979.43
2019-05-25T05:54:40.323Z,979.47
2019-05-25T05:55:41.381Z,979.47
2019-05-25T05:56:40.302Z,979.45
2019-05-25T05:57:41.324Z,979.47
2019-05-25T05:58:40.294Z,979.50
2019-05-25T05:59:40.324Z,979.39
2019-05-25T06:00:40.258Z,979.39
2019-05-25T06:01:40.255Z,979.45
2019-05-25T06:02:40.228Z,979.45
2019-05-25T06:03:40.226Z,979.48
2019-05-25T06:04:40.203Z,979.44
2019-05-25T06:05:40.238Z,979.46
2019-05-25T06:06:40.177Z,979.46
2019-05-25T06:07:40.267Z,979.41
2019-05-25T06:08:40.168Z,979.39
2019-05-25T06:09:40.208Z,979.43
2019-05-25T06:10:40.140Z,979.43
2019-05-25T06:11:40.151Z,979.41
2019-05-25T06:12:40.120Z,979.42
2019-05-25T06:13:40.231Z,979.41
2019-05-25T06:14:40.151Z,979.44
2019-05-25T06:15:40.082Z,979.51
2019-05-25T06:16:40.083Z,979.43
2019-05-25T06:17:40.053Z,979.46
2019-05-25T06:18:40.177Z,979.45
2019-05-25T06:19:40.085Z,979.40
2019-05-25T06:20:40.025Z,979.45
2019-05-25T06:21:40.026Z,979.51
2019-05-25T06:22:40.007Z,979.46
2019-05-25T06:23:40.106Z,979.47
2019-05-25T06:24:41.061Z,979.52
2019-05-25T06:25:39.971Z,979.47
2019-05-25T06:26:40.178Z,979.47
2019-05-25T06:27:39.949Z,979.46
2019-05-25T06:28:40.112Z,979.52
2019-05-25T06:29:40.000Z,979.46
2019-05-25T06:30:39.941Z,979.51
2019-05-25T06:31:39.912Z,979.45
2019-05-25T06:32:39.982Z,979.41
2019-05-25T06:33:39.872Z,979.46
2019-05-25T06:34:39.957Z,979.46
2019-05-25T06:35:39.864Z,979.48
2019-05-25T06:36:39.944Z,979.48
2019-05-25T06:37:39.835Z,979.47
2019-05-25T06:38:39.885Z,979.48
2019-05-25T06:39:39.836Z,979.49
2019-05-25T06:40:39.910Z,979.50
2019-05-25T06:41:39.790Z,979.42
2019-05-25T06:42:39.858Z,979.47
2019-05-25T06:43:39.768Z,979.40
2019-05-25T06:44:39.849Z,979.38
2019-05-25T06:45:39.752Z,979.36
2019-05-25T06:46:39.962Z,979.38
2019-05-25T06:47:39.733Z,979.38
2019-05-25T06:48:39.773Z,979.34
2019-05-25T06:49:39.723Z,979.37
2019-05-25T06:50:39.706Z,979.34
2019-05-25T06:51:39.679Z,979.41
2019-05-25T06:52:39.745Z,979.40
2019-05-25T06:53:39.657Z,979.40
2019-05-25T06:54:39.728Z,979.44
2019-05-25T06:55:39.627Z,979.45
2019-05-25T06:56:39.616Z,979.47
2019-05-25T06:57:43.613Z,979.46
2019-05-25T06:58:39.647Z,979.45
2019-05-25T06:59:39.600Z,979.50
2019-05-25T07:00:39.689Z,979.52
2019-05-25T07:01:39.659Z,979.50
2019-05-25T07:02:39.561Z,979.46
2019-05-25T07:03:39.602Z,979.53
2019-05-25T07:04:39.561Z,979.52
2019-05-25T07:05:39.662Z,979.54
2019-05-25T07:06:39.512Z,979.51
2019-05-25T07:07:39.563Z,979.52
2019-05-25T07:08:39.485Z,979.50
2019-05-25T07:09:40.565Z,979.57
2019-05-25T07:10:39.465Z,979.56
2019-05-25T07:11:39.546Z,979.51
2019-05-25T07:12:39.446Z,979.53
2019-05-25T07:13:39.479Z,979.52
2019-05-25T07:14:39.437Z,979.55
2019-05-25T07:15:39.521Z,979.52
2019-05-25T07:16:39.409Z,979.56
2019-05-25T07:17:39.399Z,979.59
2019-05-25T07:18:39.390Z,979.55
2019-05-25T07:19:39.435Z,979.55
2019-05-25T07:20:39.365Z,979.54
2019-05-25T07:21:39.422Z,979.54
2019-05-25T07:22:39.383Z,979.50
2019-05-25T07:23:39.333Z,979.51
2019-05-25T07:24:39.364Z,979.52
2019-05-25T07:25:39.298Z,979.48
2019-05-25T07:26:39.367Z,979.43
2019-05-25T07:27:39.278Z,979.46
2019-05-25T07:28:45.846Z,979.41
2019-05-25T07:29:39.287Z,979.49
2019-05-25T07:33:03.813Z,979.41
2019-05-25T07:34:03.802Z,979.46
2019-05-25T07:35:13.656Z,979.41
2019-05-25T07:36:07.599Z,979.46
2019-05-25T07:37:03.904Z,979.43
2019-05-25T07:38:03.753Z,979.45
2019-05-25T07:39:03.733Z,979.40
2019-05-25T07:40:04.874Z,979.41
2019-05-25T07:41:03.716Z,979.43
2019-05-25T07:44:14.606Z,979.48
2019-05-25T07:45:14.618Z,979.49
2019-05-25T07:46:17.340Z,979.47
2019-05-25T07:47:14.578Z,979.46
2019-05-25T07:48:21.369Z,979.44
2019-05-25T07:49:14.560Z,979.48
2019-05-25T07:50:35.533Z,979.45
2019-05-25T07:51:14.520Z,979.46
2019-05-25T07:52:23.373Z,979.40
2019-05-25T07:53:14.508Z,979.46
2019-05-25T07:55:40.616Z,979.42
2019-05-25T07:56:29.585Z,979.32
2019-05-25T07:57:36.625Z,979.33
2019-05-25T07:58:29.566Z,979.37
2019-05-25T07:59:44.648Z,979.35
2019-05-25T08:00:29.557Z,979.41
2019-05-25T08:01:46.628Z,979.39
2019-05-25T08:02:29.529Z,979.38
2019-05-25T08:03:29.520Z,979.40
2019-05-25T08:04:57.480Z,979.45
2019-05-25T08:05:29.511Z,979.44
2019-05-25T08:06:29.508Z,979.43
2019-05-25T08:08:05.673Z,979.48
2019-05-25T08:08:29.452Z,979.42
2019-05-25T08:09:29.463Z,979.43
2019-05-25T08:10:45.554Z,979.48
2019-05-25T08:11:29.416Z,979.46
2019-05-25T08:12:38.087Z,979.50
2019-05-25T08:13:29.396Z,979.48
2019-05-25T08:14:59.107Z,979.52
2019-05-25T08:15:29.418Z,979.52
2019-05-25T08:16:50.549Z,979.49
2019-05-25T08:17:29.370Z,979.56
2019-05-25T08:18:51.489Z,979.48
2019-05-25T08:19:29.330Z,979.45
2019-05-25T08:20:39.091Z,979.49
2019-05-25T08:21:29.315Z,979.50
2019-05-25T08:22:58.146Z,979.49
2019-05-25T08:23:29.284Z,979.53
2019-05-25T08:24:29.279Z,979.49
2019-05-25T08:25:50.495Z,979.47
2019-05-25T08:26:29.258Z,979.55
2019-05-25T08:27:29.256Z,979.51
2019-05-25T08:30:18.827Z,979.44
2019-05-25T08:30:49.518Z,979.43
2019-05-25T08:31:58.349Z,979.44
2019-05-25T08:32:49.453Z,979.48
2019-05-25T08:34:27.353Z,979.40
2019-05-25T08:34:49.423Z,979.50
2019-05-25T08:35:49.434Z,979.46
2019-05-25T08:38:06.214Z,979.45
2019-05-25T08:39:06.214Z,979.34
2019-05-25T08:40:27.356Z,979.35
2019-05-25T08:41:06.195Z,979.36
2019-05-25T08:42:06.224Z,979.36
2019-05-25T08:43:06.168Z,979.30
2019-05-25T08:44:06.159Z,979.35
2019-05-25T08:45:34.065Z,979.36
2019-05-25T08:46:06.221Z,979.40
2019-05-25T08:47:06.115Z,979.34
2019-05-25T08:48:44.020Z,979.34
2019-05-25T08:49:06.094Z,979.31
2019-05-25T08:50:06.127Z,979.33
2019-05-25T08:51:08.222Z,979.39
2019-05-25T08:52:06.058Z,979.35
2019-05-25T08:53:14.033Z,979.38
2019-05-25T08:54:06.035Z,979.39
2019-05-25T08:55:06.205Z,979.36
2019-05-25T08:56:06.036Z,979.36
2019-05-25T08:57:17.961Z,979.45
2019-05-25T08:58:06.011Z,979.38
2019-05-25T08:59:05.988Z,979.34
2019-05-25T09:00:05.978Z,979.43
2019-05-25T09:01:10.561Z,979.37
2019-05-25T09:02:05.960Z,979.39
2019-05-25T09:03:14.021Z,979.36
2019-05-25T09:04:05.926Z,979.35
2019-05-25T09:05:13.041Z,979.34
2019-05-25T09:06:05.904Z,979.37
2019-05-25T09:07:26.883Z,979.37
2019-05-25T09:08:05.885Z,979.37
2019-05-25T09:09:20.995Z,979.33
2019-05-25T09:10:05.866Z,979.34
2019-05-25T09:13:22.047Z,979.41
2019-05-25T09:14:09.988Z,979.36
2019-05-25T09:15:31.040Z,979.36
2019-05-25T09:16:09.949Z,979.34
2019-05-25T09:17:09.963Z,979.36
2019-05-25T09:20:28.408Z,979.41
2019-05-25T09:21:07.403Z,979.36
2019-05-25T09:22:09.575Z,979.35
2019-05-25T09:23:07.383Z,979.35
2019-05-25T09:25:34.545Z,979.36
2019-05-25T09:26:31.336Z,979.30
2019-05-25T09:27:30.166Z,979.22
2019-05-25T09:29:06.028Z,979.28
2019-05-25T09:29:30.138Z,979.28
2019-05-25T09:30:30.129Z,979.27
2019-05-25T09:31:30.119Z,979.25
2019-05-25T09:32:30.159Z,979.25
2019-05-25T09:33:46.011Z,979.27
2019-05-25T09:34:30.071Z,979.19
2019-05-25T09:35:46.972Z,979.28
2019-05-25T09:36:30.073Z,979.30
2019-05-25T09:37:30.043Z,979.25
2019-05-25T09:38:38.994Z,979.28
2019-05-25T09:39:30.025Z,979.24
2019-05-25T09:40:38.015Z,979.28
2019-05-25T09:41:30.057Z,979.28
2019-05-25T09:42:39.425Z,979.26
2019-05-25T09:43:29.988Z,979.27
2019-05-25T09:44:58.981Z,979.25
2019-05-25T09:45:29.953Z,979.26
2019-05-25T09:47:38.791Z,979.33
2019-05-25T09:48:46.552Z,979.36
2019-05-25T09:49:38.752Z,979.35
2019-05-25T09:50:59.900Z,979.39
2019-05-25T09:51:38.734Z,979.39
2019-05-25T09:52:38.744Z,979.42
2019-05-25T09:53:38.714Z,979.44
2019-05-25T09:54:38.715Z,979.38
2019-05-25T09:55:46.535Z,979.41
2019-05-25T09:56:38.686Z,979.42
2019-05-25T09:57:43.037Z,979.43
2019-05-25T09:58:38.659Z,979.47
2019-05-25T10:02:59.855Z,979.44
2019-05-25T10:03:29.791Z,979.45
2019-05-25T10:04:29.781Z,979.46
2019-05-25T10:05:29.943Z,979.45
2019-05-25T10:06:29.753Z,979.45
2019-05-25T10:07:29.924Z,979.50
2019-05-25T10:08:29.734Z,979.56
2019-05-25T10:09:29.734Z,979.55
2019-05-25T10:10:29.731Z,979.52
2019-05-25T10:11:38.447Z,979.52
2019-05-25T10:12:29.720Z,979.55
2019-05-25T10:13:36.437Z,979.57
2019-05-25T10:14:45.449Z,979.57
2019-05-25T10:15:29.658Z,979.62
2019-05-25T10:16:46.360Z,979.58
2019-05-25T10:17:29.650Z,979.67
2019-05-25T10:19:07.383Z,979.58
2019-05-25T10:19:29.611Z,979.58
2019-05-25T10:20:45.412Z,979.60
2019-05-25T10:21:29.609Z,979.59
2019-05-25T10:22:53.886Z,979.60
2019-05-25T10:23:29.575Z,979.66
2019-05-25T10:27:25.737Z,979.69
2019-05-25T10:32:23.980Z,979.69
2019-05-25T10:33:22.781Z,979.64
2019-05-25T10:34:37.594Z,979.68
2019-05-25T10:35:22.769Z,979.61
2019-05-25T10:36:22.753Z,979.72
2019-05-25T10:37:22.764Z,979.74
2019-05-25T10:38:43.907Z,979.80
2019-05-25T10:39:22.728Z,979.78
2019-05-25T10:40:23.980Z,979.72
2019-05-25T10:41:22.707Z,979.74
2019-05-25T10:42:22.817Z,979.74
2019-05-25T10:43:22.693Z,979.77
2019-05-25T10:44:38.598Z,979.76
2019-05-25T10:45:22.648Z,979.73
2019-05-25T10:46:50.561Z,979.76
2019-05-25T10:47:22.629Z,979.78
2019-05-25T10:48:22.630Z,979.80
2019-05-25T10:49:31.811Z,979.77
2019-05-25T10:50:22.592Z,979.82
2019-05-25T10:51:50.562Z,979.81
2019-05-25T10:52:22.573Z,979.80
2019-05-25T10:53:27.097Z,979.80
2019-05-25T10:54:22.564Z,979.82
2019-05-25T10:55:43.676Z,979.78
2019-05-25T10:56:22.537Z,979.80
2019-05-25T10:57:22.627Z,979.74
2019-05-25T10:58:22.540Z,979.73
2019-05-25T10:59:22.567Z,979.75
2019-05-25T11:00:22.489Z,979.74
2019-05-25T11:01:22.487Z,979.74
2019-05-25T11:02:22.461Z,979.76
2019-05-25T11:03:22.461Z,979.79
2019-05-25T11:04:22.451Z,979.74
2019-05-25T11:05:22.472Z,979.76
2019-05-25T11:06:22.413Z,979.79
2019-05-25T11:07:23.433Z,979.72
2019-05-25T11:08:22.534Z,979.74
2019-05-25T11:09:22.425Z,979.73
2019-05-25T11:10:22.436Z,979.74
2019-05-25T11:11:22.376Z,979.70
2019-05-25T11:12:25.881Z,979.69
2019-05-25T11:13:22.468Z,979.65
2019-05-25T11:14:22.328Z,979.68
2019-05-25T11:15:22.358Z,979.62
2019-05-25T11:16:22.311Z,979.61
2019-05-25T11:17:22.400Z,979.61
2019-05-25T11:18:22.300Z,979.60
2019-05-25T11:19:24.325Z,979.64
2019-05-25T11:20:22.264Z,979.60
2019-05-25T11:21:22.375Z,979.61
2019-05-25T11:22:22.253Z,979.62
2019-05-25T11:23:22.357Z,979.61
2019-05-25T11:24:22.226Z,979.65
2019-05-25T11:25:22.247Z,979.63
2019-05-25T11:26:22.207Z,979.66
2019-05-25T11:27:22.275Z,979.61
2019-05-25T11:28:22.176Z,979.59
2019-05-25T11:29:22.197Z,979.61
2019-05-25T11:30:22.178Z,979.63
2019-05-25T11:31:22.138Z,979.61
2019-05-25T11:32:22.219Z,979.62
2019-05-25T11:33:22.120Z,979.65
2019-05-25T11:34:22.144Z,979.61
2019-05-25T11:35:22.122Z,979.59
2019-05-25T11:36:22.095Z,979.56
2019-05-25T11:37:22.163Z,979.56
2019-05-25T11:38:22.073Z,979.56
2019-05-25T11:39:22.083Z,979.54
2019-05-25T11:40:22.048Z,979.49
2019-05-25T11:41:22.139Z,979.52
2019-05-25T11:42:22.025Z,979.50
2019-05-25T11:43:22.066Z,979.49
2019-05-25T11:44:22.017Z,979.50
2019-05-25T11:45:21.988Z,979.51
2019-05-25T11:46:22.068Z,979.45
2019-05-25T11:47:21.958Z,979.48
2019-05-25T11:48:22.015Z,979.45
2019-05-25T11:49:22.979Z,979.49
2019-05-25T11:50:22.070Z,979.49
2019-05-25T11:51:22.014Z,979.52
2019-05-25T11:52:21.923Z,979.57
2019-05-25T11:53:21.955Z,979.56
2019-05-25T11:54:21.933Z,979.57
2019-05-25T11:55:21.890Z,979.61
2019-05-25T11:56:21.868Z,979.57
2019-05-25T11:57:21.935Z,979.59
2019-05-25T11:58:22.010Z,979.59
2019-05-25T11:59:21.896Z,979.67
2019-05-25T12:00:25.318Z,979.66
2019-05-25T12:01:21.898Z,979.66
2019-05-25T12:02:21.791Z,979.66
2019-05-25T12:03:21.829Z,979.70
2019-05-25T12:04:21.790Z,979.63
2019-05-25T12:05:22.799Z,979.63
2019-05-25T12:06:21.841Z,979.66
2019-05-25T12:07:21.737Z,979.65
2019-05-25T12:08:21.776Z,979.62
2019-05-25T12:09:21.743Z,979.64
2019-05-25T12:10:21.814Z,979.64
2019-05-25T12:11:21.704Z,979.63
2019-05-25T12:12:21.748Z,979.64
2019-05-25T12:13:21.666Z,979.69
2019-05-25T12:14:21.727Z,979.68
2019-05-25T12:15:21.651Z,979.62
2019-05-25T12:16:21.638Z,979.69
2019-05-25T12:17:21.631Z,979.71
2019-05-25T12:18:21.659Z,979.73
2019-05-25T12:19:22.416Z,979.72
2019-05-25T12:20:21.711Z,979.70
2019-05-25T12:21:21.582Z,979.76
2019-05-25T12:22:21.632Z,979.74
2019-05-25T12:23:21.573Z,979.75
2019-05-25T12:24:21.613Z,979.77
2019-05-25T12:25:21.550Z,979.79
2019-05-25T12:26:21.605Z,979.76
2019-05-25T12:27:21.535Z,979.79
2019-05-25T12:28:21.556Z,979.83
2019-05-25T12:29:21.506Z,979.83
2019-05-25T12:30:21.579Z,979.85
2019-05-25T12:31:21.467Z,979.86
2019-05-25T12:32:21.458Z,979.89
2019-05-25T12:33:21.479Z,979.89
2019-05-25T12:34:21.530Z,979.92
2019-05-25T12:35:21.531Z,979.96
2019-05-25T12:36:21.410Z,979.90
2019-05-25T12:37:21.401Z,979.90
2019-05-25T12:38:22.442Z,979.92
2019-05-25T12:39:21.709Z,979.89
2019-05-25T12:40:21.463Z,979.94
2019-05-25T12:41:21.370Z,979.92
2019-05-25T12:42:21.356Z,979.97
2019-05-25T12:43:21.346Z,979.95
2019-05-25T12:44:21.378Z,979.91
2019-05-25T12:45:21.316Z,979.98
2019-05-25T12:46:21.367Z,979.96
2019-05-25T12:47:21.293Z,979.97
2019-05-25T12:48:21.297Z,979.96
2019-05-25T12:49:21.293Z,979.93
2019-05-25T12:50:21.339Z,979.99
2019-05-25T12:51:21.251Z,979.95
2019-05-25T12:52:21.281Z,979.94
2019-05-25T12:53:21.225Z,979.92